Time,TemperatureF,DewpointF,PressureIn,WindDirection,WindDirectionDegrees,WindSpeedMPH,WindSpeedGustMPH,Humidity,HourlyPrecipIn,Conditions,Clouds,dailyrainin,SoftwareType,DateUTC
2013-02-27 00:01:00,40.0,-99.9,30.20,West,262,0.0,0.0,-999,0.00,,,0.00,,2013-02-27 07:01:00,
2013-02-27 00:12:00,40.0,-99.9,30.20,West,262,0.0,0.0,-999,0.00,,,0.00,,2013-02-27 07:12:00,
2013-02-27 00:22:00,40.0,-99.9,30.20,West,262,0.0,0.0,-999,0.00,,,0.00,,2013-02-27 07:22:00,
2013-02-27 00:32:00,38.0,-99.9,30.20,West,262,0.0,0.0,-999,0.00,,,0.00,,2013-02-27 07:32:00,
2013-02-27 00:42:00,38.0,-99.9,30.20,West,262,0.0,0.0,-999,0.00,,,0.00,,2013-02-27 07:42:00,
2013-02-27 00:52:00,39.0,-99.9,30.20,West,262,0.0,0.0,-999,0.00,,,0.00,,2013-02-27 07:52:00,
2013-02-27 01:01:00,38.0,-99.9,30.20,West,262,0.0,0.0,-999,0.00,,,0.00,,2013-02-27 08:01:00,
2013-02-27 01:12:00,38.0,-99.9,30.20,West,262,0.0,0.0,-999,0.00,,,0.00,,2013-02-27 08:12:00,
2013-02-27 01:22:00,37.0,-99.9,30.20,West,262,0.0,0.0,-999,0.00,,,0.00,,2013-02-27 08:22:00,
2013-02-27 01:32:00,37.0,-99.9,30.21,West,262,0.0,0.0,-999,0.00,,,0.00,,2013-02-27 08:32:00,
2013-02-27 01:42:00,37.0,-99.9,30.21,West,262,0.0,0.0,-999,0.00,,,0.00,,2013-02-27 08:42:00,
2013-02-27 01:53:00,37.0,-99.9,30.22,West,262,0.0,0.0,-999,0.00,,,0.00,,2013-02-27 08:53:00,
2013-02-27 02:02:00,36.0,-99.9,30.22,West,262,0.0,0.0,-999,0.00,,,0.00,,2013-02-27 09:02:00,
2013-02-27 02:12:00,36.0,-99.9,30.22,West,262,0.0,0.0,-999,0.00,,,0.00,,2013-02-27 09:12:00,
2013-02-27 02:22:00,36.0,-99.9,30.22,West,262,0.0,0.0,-999,0.00,,,0.00,,2013-02-27 09:22:00,
2013-02-27 02:32:00,36.0,-99.9,30.22,West,262,0.0,0.0,-999,0.00,,,0.00,,2013-02-27 09:32:00,
2013-02-27 02:42:00,36.0,-99.9,30.22,West,262,0.0,0.0,-999,0.00,,,0.00,,2013-02-27 09:42:00,
2013-02-27 02:52:00,36.0,-99.9,30.22,West,262,0.0,0.0,-999,0.00,,,0.00,,2013-02-27 09:52:00,
2013-02-27 03:01:00,36.0,-99.9,30.22,West,262,0.0,0.0,-999,0.00,,,0.00,,2013-02-27 10:01:00,
2013-02-27 03:12:00,36.0,-99.9,30.22,West,262,0.0,0.0,-999,0.00,,,0.00,,2013-02-27 10:12:00,
2013-02-27 03:22:00,35.0,-99.9,30.22,West,262,0.0,0.0,-999,0.00,,,0.00,,2013-02-27 10:22:00,
2013-02-27 03:32:00,35.0,-99.9,30.22,West,262,0.0,0.0,-999,0.00,,,0.00,,2013-02-27 10:32:00,
2013-02-27 03:42:00,35.0,-99.9,30.22,West,262,0.0,0.0,-999,0.00,,,0.00,,2013-02-27 10:42:00,
2013-02-27 03:53:00,33.0,-99.9,30.23,West,262,0.0,0.0,-999,0.00,,,0.00,,2013-02-27 10:53:00,
2013-02-27 04:03:00,34.0,-99.9,30.23,West,262,0.0,0.0,-999,0.00,,,0.00,,2013-02-27 11:03:00,
2013-02-27 04:12:00,34.0,-99.9,30.23,West,262,0.0,0.0,-999,0.00,,,0.00,,2013-02-27 11:12:00,
2013-02-27 04:22:00,34.0,-99.9,30.22,West,262,0.0,0.0,-999,0.00,,,0.00,,2013-02-27 11:22:00,
2013-02-27 04:32:00,32.0,-99.9,30.23,West,262,0.0,0.0,-999,0.00,,,0.00,,2013-02-27 11:32:00,
2013-02-27 04:42:00,32.0,-99.9,30.23,West,262,0.0,0.0,-999,0.00,,,0.00,,2013-02-27 11:42:00,
2013-02-27 04:52:00,33.0,-99.9,30.23,West,262,0.0,0.0,-999,0.00,,,0.00,,2013-02-27 11:52:00,
2013-02-27 05:02:00,32.0,-99.9,30.23,West,262,0.0,0.0,-999,0.00,,,0.00,,2013-02-27 12:02:00,
2013-02-27 05:13:00,32.0,-99.9,30.23,West,262,0.0,0.0,-999,0.00,,,0.00,,2013-02-27 12:13:00,
2013-02-27 05:22:00,30.0,-99.9,30.24,SSW,203,1.0,0.0,-999,0.00,,,0.00,,2013-02-27 12:22:00,
2013-02-27 05:33:00,34.0,-99.9,30.24,SSW,206,5.0,5.0,-999,0.00,,,0.00,,2013-02-27 12:33:00,
2013-02-27 05:42:00,34.0,-99.9,30.24,SSW,206,5.0,5.0,-999,0.00,,,0.00,,2013-02-27 12:42:00,
2013-02-27 05:53:00,33.0,-99.9,30.24,SW,234,0.0,0.0,-999,0.00,,,0.00,,2013-02-27 12:53:00,
2013-02-27 06:03:00,31.0,-99.9,30.25,SW,234,0.0,0.0,-999,0.00,,,0.00,,2013-02-27 13:03:00,
2013-02-27 06:12:00,31.0,-99.9,30.25,SW,234,0.0,0.0,-999,0.00,,,0.00,,2013-02-27 13:12:00,
2013-02-27 06:22:00,29.0,-99.9,30.26,SW,234,0.0,0.0,-999,0.00,,,0.00,,2013-02-27 13:22:00,
2013-02-27 06:32:00,30.0,-99.9,30.27,South,182,0.0,3.0,-999,0.00,,,0.00,,2013-02-27 13:32:00,
2013-02-27 06:42:00,30.0,-99.9,30.27,South,182,0.0,3.0,-999,0.00,,,0.00,,2013-02-27 13:42:00,
2013-02-27 06:53:00,28.0,-99.9,30.27,South,191,0.0,0.0,-999,0.00,,,0.00,,2013-02-27 13:53:00,
2013-02-27 07:02:00,31.0,-99.9,30.27,SW,226,0.0,4.0,-999,0.00,,,0.00,,2013-02-27 14:02:00,
2013-02-27 07:12:00,31.0,-99.9,30.27,SW,226,0.0,4.0,-999,0.00,,,0.00,,2013-02-27 14:12:00,
2013-02-27 07:22:00,33.0,-99.9,30.27,WSW,244,0.0,3.0,-999,0.00,,,0.00,,2013-02-27 14:22:00,
2013-02-27 07:32:00,34.0,-99.9,30.27,WSW,247,1.0,0.0,-999,0.00,,,0.00,,2013-02-27 14:32:00,
2013-02-27 07:42:00,34.0,-99.9,30.27,WSW,247,1.0,0.0,-999,0.00,,,0.00,,2013-02-27 14:42:00,
2013-02-27 07:53:00,30.0,-99.9,30.28,WSW,247,0.0,0.0,-999,0.00,,,0.00,,2013-02-27 14:53:00,
2013-02-27 08:02:00,33.0,-99.9,30.29,WSW,247,0.0,0.0,-999,0.00,,,0.00,,2013-02-27 15:02:00,
2013-02-27 08:12:00,33.0,-99.9,30.29,WSW,247,0.0,0.0,-999,0.00,,,0.00,,2013-02-27 15:12:00,
2013-02-27 08:23:00,36.0,-99.9,30.29,WSW,247,0.0,0.0,-999,0.00,,,0.00,,2013-02-27 15:23:00,
2013-02-27 08:32:00,35.0,-99.9,30.30,WSW,247,0.0,0.0,-999,0.00,,,0.00,,2013-02-27 15:32:00,
2013-02-27 08:42:00,35.0,-99.9,30.30,WSW,247,0.0,0.0,-999,0.00,,,0.00,,2013-02-27 15:42:00,
2013-02-27 08:52:00,38.0,-99.9,30.31,WSW,247,0.0,0.0,-999,0.00,,,0.00,,2013-02-27 15:52:00,
2013-02-27 09:02:00,38.0,-99.9,30.31,East,82,0.0,0.0,-999,0.00,,,0.00,,2013-02-27 16:02:00,
2013-02-27 09:12:00,38.0,-99.9,30.31,East,82,0.0,0.0,-999,0.00,,,0.00,,2013-02-27 16:12:00,
2013-02-27 09:22:00,40.0,-99.9,30.31,East,82,0.0,0.0,-999,0.00,,,0.00,,2013-02-27 16:22:00,
2013-02-27 09:32:00,43.0,-99.9,30.31,East,82,0.0,0.0,-999,0.00,,,0.00,,2013-02-27 16:32:00,
2013-02-27 09:42:00,43.0,-99.9,30.31,East,82,0.0,0.0,-999,0.00,,,0.00,,2013-02-27 16:42:00,
2013-02-27 09:52:00,45.0,-99.9,30.31,East,82,0.0,0.0,-999,0.00,,,0.00,,2013-02-27 16:52:00,
2013-02-27 10:02:00,45.0,-99.9,30.31,East,82,0.0,0.0,-999,0.00,,,0.00,,2013-02-27 17:02:00,
2013-02-27 10:11:00,45.0,-99.9,30.31,East,82,0.0,0.0,-999,0.00,,,0.00,,2013-02-27 17:11:00,
2013-02-27 10:22:00,45.0,-99.9,30.31,East,82,0.0,0.0,-999,0.00,,,0.00,,2013-02-27 17:22:00,
2013-02-27 10:32:00,48.0,-99.9,30.31,East,82,0.0,0.0,-999,0.00,,,0.00,,2013-02-27 17:32:00,
2013-02-27 10:42:00,48.0,-99.9,30.31,East,82,0.0,0.0,-999,0.00,,,0.00,,2013-02-27 17:42:00,
2013-02-27 10:52:00,49.0,-99.9,30.31,WNW,295,0.0,0.0,-999,0.00,,,0.00,,2013-02-27 17:52:00,
2013-02-27 11:02:00,51.0,-99.9,30.31,NNE,18,2.0,6.0,-999,0.00,,,0.00,,2013-02-27 18:02:00,
2013-02-27 11:11:00,51.0,-99.9,30.31,NNE,18,2.0,6.0,-999,0.00,,,0.00,,2013-02-27 18:11:00,
2013-02-27 11:22:00,52.0,-99.9,30.31,NE,47,0.0,0.0,-999,0.00,,,0.00,,2013-02-27 18:22:00,
2013-02-27 11:32:00,53.0,-99.9,30.31,North,358,0.0,0.0,-999,0.00,,,0.00,,2013-02-27 18:32:00,
2013-02-27 11:42:00,53.0,-99.9,30.31,North,358,0.0,0.0,-999,0.00,,,0.00,,2013-02-27 18:42:00,
2013-02-27 11:52:00,53.0,-99.9,30.30,North,358,0.0,0.0,-999,0.00,,,0.00,,2013-02-27 18:52:00,
2013-02-27 12:02:00,53.0,-99.9,30.30,NNE,26,0.0,0.0,-999,0.00,,,0.00,,2013-02-27 19:02:00,
2013-02-27 12:12:00,53.0,-99.9,30.30,NNE,26,0.0,0.0,-999,0.00,,,0.00,,2013-02-27 19:12:00,
2013-02-27 12:22:00,54.0,-99.9,30.29,NNE,26,0.0,0.0,-999,0.00,,,0.00,,2013-02-27 19:22:00,
2013-02-27 12:32:00,57.0,-99.9,30.28,South,181,0.0,0.0,-999,0.00,,,0.00,,2013-02-27 19:32:00,
2013-02-27 12:42:00,57.0,-99.9,30.28,South,181,0.0,0.0,-999,0.00,,,0.00,,2013-02-27 19:42:00,
2013-02-27 12:52:00,56.0,-99.9,30.27,North,8,0.0,0.0,-999,0.00,,,0.00,,2013-02-27 19:52:00,
2013-02-27 13:02:00,57.0,-99.9,30.27,NNW,338,3.0,9.0,-999,0.00,,,0.00,,2013-02-27 20:02:00,
2013-02-27 13:12:00,57.0,-99.9,30.27,NNW,338,3.0,9.0,-999,0.00,,,0.00,,2013-02-27 20:12:00,
2013-02-27 13:22:00,56.0,-99.9,30.27,WNW,289,3.0,9.0,-999,0.00,,,0.00,,2013-02-27 20:22:00,
2013-02-27 13:32:00,56.0,-99.9,30.26,North,360,0.0,0.0,-999,0.00,,,0.00,,2013-02-27 20:32:00,
2013-02-27 13:42:00,56.0,-99.9,30.26,North,360,0.0,0.0,-999,0.00,,,0.00,,2013-02-27 20:42:00,
2013-02-27 13:53:00,57.0,-99.9,30.26,SE,144,0.0,0.0,-999,0.00,,,0.00,,2013-02-27 20:53:00,
2013-02-27 14:02:00,57.0,-99.9,30.24,North,2,2.0,5.0,-999,0.00,,,0.00,,2013-02-27 21:02:00,
2013-02-27 14:11:00,57.0,-99.9,30.24,North,2,2.0,5.0,-999,0.00,,,0.00,,2013-02-27 21:11:00,
2013-02-27 14:22:00,56.0,-99.9,30.24,NNW,343,0.0,0.0,-999,0.00,,,0.00,,2013-02-27 21:22:00,
2013-02-27 14:32:00,57.0,-99.9,30.23,NNW,337,0.0,0.0,-999,0.00,,,0.00,,2013-02-27 21:32:00,
2013-02-27 14:42:00,57.0,-99.9,30.23,NNW,337,0.0,0.0,-999,0.00,,,0.00,,2013-02-27 21:42:00,
2013-02-27 14:52:00,57.0,-99.9,30.23,NW,313,0.0,0.0,-999,0.00,,,0.00,,2013-02-27 21:52:00,
2013-02-27 15:02:00,58.0,-99.9,30.22,NE,52,0.0,0.0,-999,0.00,,,0.00,,2013-02-27 22:02:00,
2013-02-27 15:12:00,58.0,-99.9,30.22,NE,52,0.0,0.0,-999,0.00,,,0.00,,2013-02-27 22:12:00,
2013-02-27 15:22:00,59.0,-99.9,30.22,North,4,3.0,7.0,-999,0.00,,,0.00,,2013-02-27 22:22:00,
2013-02-27 15:32:00,58.0,-99.9,30.21,NNE,16,0.0,0.0,-999,0.00,,,0.00,,2013-02-27 22:32:00,
2013-02-27 15:42:00,58.0,-99.9,30.21,NNE,16,0.0,0.0,-999,0.00,,,0.00,,2013-02-27 22:42:00,
2013-02-27 15:52:00,58.0,-99.9,30.21,NNW,340,0.0,0.0,-999,0.00,,,0.00,,2013-02-27 22:52:00,
2013-02-27 16:02:00,59.0,-99.9,30.20,NNE,29,0.0,0.0,-999,0.00,,,0.00,,2013-02-27 23:02:00,
2013-02-27 16:12:00,59.0,-99.9,30.20,NNE,29,0.0,0.0,-999,0.00,,,0.00,,2013-02-27 23:12:00,
2013-02-27 16:22:00,58.0,-99.9,30.21,NW,317,0.0,3.0,-999,0.00,,,0.00,,2013-02-27 23:22:00,
2013-02-27 16:32:00,57.0,-99.9,30.20,NW,305,0.0,1.0,-999,0.00,,,0.00,,2013-02-27 23:32:00,
2013-02-27 16:42:00,57.0,-99.9,30.20,NW,305,0.0,1.0,-999,0.00,,,0.00,,2013-02-27 23:42:00,
2013-02-27 16:53:00,59.0,-99.9,30.20,North,357,3.0,3.0,-999,0.00,,,0.00,,2013-02-27 23:53:00,
2013-02-27 17:02:00,57.0,-99.9,30.20,NW,307,0.0,3.0,-999,0.00,,,0.00,,2013-02-28 00:02:00,
2013-02-27 17:13:00,57.0,-99.9,30.20,NW,307,0.0,3.0,-999,0.00,,,0.00,,2013-02-28 00:13:00,
2013-02-27 17:22:00,59.0,-99.9,30.20,WNW,298,0.0,0.0,-999,0.00,,,0.00,,2013-02-28 00:22:00,
2013-02-27 17:32:00,60.0,-99.9,30.20,NNW,337,0.0,0.0,-999,0.00,,,0.00,,2013-02-28 00:32:00,
2013-02-27 17:42:00,60.0,-99.9,30.20,NNW,337,0.0,0.0,-999,0.00,,,0.00,,2013-02-28 00:42:00,
2013-02-27 17:52:00,60.0,-99.9,30.20,NNW,337,0.0,0.0,-999,0.00,,,0.00,,2013-02-28 00:52:00,
2013-02-27 18:01:00,61.0,-99.9,30.20,NNW,337,0.0,0.0,-999,0.00,,,0.00,,2013-02-28 01:01:00,
2013-02-27 18:11:00,61.0,-99.9,30.20,NNW,337,0.0,0.0,-999,0.00,,,0.00,,2013-02-28 01:11:00,
2013-02-27 18:22:00,57.0,-99.9,30.20,NNW,337,0.0,0.0,-999,0.00,,,0.00,,2013-02-28 01:22:00,
2013-02-27 18:32:00,54.0,-99.9,30.22,NNW,337,0.0,0.0,-999,0.00,,,0.00,,2013-02-28 01:32:00,
2013-02-27 18:42:00,54.0,-99.9,30.22,NNW,337,0.0,0.0,-999,0.00,,,0.00,,2013-02-28 01:42:00,
2013-02-27 18:52:00,52.0,-99.9,30.22,West,268,0.0,0.0,-999,0.00,,,0.00,,2013-02-28 01:52:00,
2013-02-27 19:01:00,51.0,-99.9,30.22,West,268,0.0,0.0,-999,0.00,,,0.00,,2013-02-28 02:01:00,
2013-02-27 19:11:00,51.0,-99.9,30.22,West,268,0.0,0.0,-999,0.00,,,0.00,,2013-02-28 02:11:00,
2013-02-27 19:22:00,51.0,-99.9,30.23,West,268,0.0,0.0,-999,0.00,,,0.00,,2013-02-28 02:22:00,
2013-02-27 19:32:00,50.0,-99.9,30.23,West,268,0.0,0.0,-999,0.00,,,0.00,,2013-02-28 02:32:00,
2013-02-27 19:42:00,50.0,-99.9,30.23,West,268,0.0,0.0,-999,0.00,,,0.00,,2013-02-28 02:42:00,
2013-02-27 19:52:00,50.0,-99.9,30.23,West,268,0.0,0.0,-999,0.00,,,0.00,,2013-02-28 02:52:00,
2013-02-27 20:02:00,49.0,-99.9,30.25,NNW,331,0.0,0.0,-999,0.00,,,0.00,,2013-02-28 03:02:00,
2013-02-27 20:11:00,49.0,-99.9,30.25,NNW,331,0.0,0.0,-999,0.00,,,0.00,,2013-02-28 03:11:00,
2013-02-27 20:22:00,49.0,-99.9,30.25,NNW,331,0.0,0.0,-999,0.00,,,0.00,,2013-02-28 03:22:00,
2013-02-27 20:32:00,48.0,-99.9,30.25,NNW,331,0.0,0.0,-999,0.00,,,0.00,,2013-02-28 03:32:00,
2013-02-27 20:42:00,48.0,-99.9,30.25,NNW,331,0.0,0.0,-999,0.00,,,0.00,,2013-02-28 03:42:00,
2013-02-27 20:52:00,48.0,-99.9,30.26,NNW,331,0.0,0.0,-999,0.00,,,0.00,,2013-02-28 03:52:00,
2013-02-27 21:02:00,47.0,-99.9,30.27,NNW,331,0.0,0.0,-999,0.00,,,0.00,,2013-02-28 04:02:00,
2013-02-27 21:11:00,47.0,-99.9,30.27,NNW,331,0.0,0.0,-999,0.00,,,0.00,,2013-02-28 04:11:00,
2013-02-27 21:22:00,47.0,-99.9,30.27,West,272,0.0,0.0,-999,0.00,,,0.00,,2013-02-28 04:22:00,
2013-02-27 21:32:00,47.0,-99.9,30.27,West,272,0.0,0.0,-999,0.00,,,0.00,,2013-02-28 04:32:00,
2013-02-27 21:42:00,47.0,-99.9,30.27,West,272,0.0,0.0,-999,0.00,,,0.00,,2013-02-28 04:42:00,
2013-02-27 21:52:00,46.0,-99.9,30.28,West,271,0.0,0.0,-999,0.00,,,0.00,,2013-02-28 04:52:00,
2013-02-27 22:02:00,45.0,-99.9,30.28,West,271,0.0,0.0,-999,0.00,,,0.00,,2013-02-28 05:02:00,
2013-02-27 22:11:00,45.0,-99.9,30.28,West,271,0.0,0.0,-999,0.00,,,0.00,,2013-02-28 05:11:00,
2013-02-27 22:22:00,45.0,-99.9,30.29,West,271,0.0,0.0,-999,0.00,,,0.00,,2013-02-28 05:22:00,
2013-02-27 22:32:00,45.0,-99.9,30.29,West,271,0.0,0.0,-999,0.00,,,0.00,,2013-02-28 05:32:00,
2013-02-27 22:43:00,45.0,-99.9,30.29,West,271,0.0,0.0,-999,0.00,,,0.00,,2013-02-28 05:43:00,
2013-02-27 22:52:00,44.0,-99.9,30.30,West,271,0.0,0.0,-999,0.00,,,0.00,,2013-02-28 05:52:00,
2013-02-27 23:02:00,43.0,-99.9,30.30,West,271,0.0,0.0,-999,0.00,,,0.00,,2013-02-28 06:02:00,
2013-02-27 23:11:00,43.0,-99.9,30.30,West,271,0.0,0.0,-999,0.00,,,0.00,,2013-02-28 06:11:00,
2013-02-27 23:22:00,43.0,-99.9,30.30,West,271,0.0,0.0,-999,0.00,,,0.00,,2013-02-28 06:22:00,
2013-02-27 23:32:00,43.0,-99.9,30.30,West,271,0.0,0.0,-999,0.00,,,0.00,,2013-02-28 06:32:00,
2013-02-27 23:42:00,43.0,-99.9,30.30,West,271,0.0,0.0,-999,0.00,,,0.00,,2013-02-28 06:42:00,
2013-02-27 23:52:00,42.0,-99.9,30.31,West,271,0.0,0.0,-999,0.00,,,0.00,,2013-02-28 06:52:00,